Dewey Beach, Delaware
Current Conditions -  °F | °C
As of 6:54 PM on Friday 28 Nov 2014 (Local Time) from KGED Reporting Station
Clear Clear  
Wind Chill: 30°   Ceiling: Unl
Heat Index: 30°   Visibility: 10mi
Dew Point: 19°   Wind: 3mph
Humidity: 64%   Direction: 240°WSW
Pressure: 30.29"   Gusts: NA
Location:  38.7115°N, 75.1086°W
Report Text: KGED 282354Z AUTO 24003KT 10SM CLR M01/M07 A3029 RMK AO2 SLP257 T10111072 10050 21011 53010
Loading
Personal Weather Stations






























Interactive Weather Map New forecast layout! Learn more

10-Day Weather Forecast

Advertisements
Track Severe Weather on mobile